East Watertown, Massachusetts
Current Conditions -  °F | °C
As of 6:56 AM on Thursday 29 Jan 2015 (Local Time) from KBED Reporting Station
Clear Clear  
Wind Chill: -8°   Ceiling: Unl
Heat Index: -8°   Visibility: 10mi
Dew Point: -12°   Wind: 0mph
Humidity: 83%   Direction: NA
Pressure: 30.29"   Gusts: NA
Location:  42.3702°N, 71.1777°W
Report Text: KBED 291156Z 00000KT 10SM CLR M22/M24 A3029 RMK AO2 SLP278 I6000 T12221244 11183 21244 51006
Loading
Personal Weather Stations






























Interactive Weather Map New forecast layout! Learn more

10-Day Weather Forecast

Advertisements
Track Severe Weather on mobile